Melbourne Airport, Victoria

2:12 PM AEST on August 29, 2016 (GMT +1000)
Melbourne International | | Change Station

Elev 387 ft 37.67 °S, 144.83 °E | Updated 12 minutes ago

Partly Cloudy
Partly Cloudy
64 °F
Feels Like 64 °F
N
21
Wind Variable Wind from North

Today
High -- | Low -- °F
--% Chance of Precip.
Yesterday
High -- | Low -- °F
Precip. -- in
Pressure 30.18 in
Visibility 6.2 miles
Clouds Few 4800 ft
Dew Point 37 °F
Humidity 37%
Rainfall 0.00 in
Snow Depth Not available.
6:46 AM 5:57 PM
Waning Crescent, 11% visible
METAR YMML 290400Z 01018KT 9999 FEW048 18/03 Q1022 NOSIG
Pressure 30.18 in
Visibility 6.2 miles
Clouds Few 4800 ft
Dew Point 37 °F
Humidity 37%
Rainfall 0.00 in
Snow Depth Not available.
6:46 AM 5:57 PM
Waning Crescent, 11% visible
METAR YMML 290400Z 01018KT 9999 FEW048 18/03 Q1022 NOSIG

10-Day Weather Forecast

Almanac

Astronomy

Aug. 29, 2016 Rise Set
Actual Time
Civil Twilight
Nautical Twilight
Astronomical Twilight
Moon
Length of Visible Light
Length of Day
Tomorrow will be .
, % of the Moon is Illuminated

Today's Extremes

Country Highs Country Lows

Community

WunderPhotos

Upload Photos

1,935,793 photos uploaded!

WunderBlog® & News

Nearby

Air Quality

  Air Quality AQ Index Pollutant
Not available.

Snow Depth

Station Depth Elevation

Earthquake Activity

City Distance Mag. Time & Date
Minimum magnitude displayed is 2.5.

Coastal Water Temperatures

Place Temperature

Stations

Nearby Weather Stations

Station Location Temp. Windchill Dew Point Humidity Wind Precip. Elev Updated Type